Time;durP1;ratioP1;P1;durP2;ratioP2;P2;SDS_P1;SDS_P2;PMS_P1;PMS_P2;Temp;Humidity;BMP_temperature;BMP_pressure;BME280_temperature;BME280_humidity;BME280_pressure;Samples;Min_cycle;Max_cycle;Signal;HPM_P1;HPM_P2
2021/03/17 00:01:08;;;;;;;26.20;16.55;;;;;;;7.90;68.05;102703.56;5045952;28;20028;-85
2021/03/17 00:03:35;;;;;;;23.50;15.65;;;;;;;7.91;68.07;102712.34;5042145;28;20480;-84
2021/03/17 00:06:04;;;;;;;24.20;16.17;;;;;;;7.91;68.38;102709.72;5042921;28;20037;-91
2021/03/17 00:08:30;;;;;;;22.80;13.57;;;;;;;7.94;68.04;102715.97;5043854;28;20140;-85
2021/03/17 00:11:00;;;;;;;21.13;13.32;;;;;;;7.96;68.15;102717.75;5046193;28;20423;-90
2021/03/17 00:13:28;;;;;;;19.77;13.52;;;;;;;8.00;67.84;102704.66;5038145;28;20471;-84
2021/03/17 00:15:58;;;;;;;20.45;12.60;;;;;;;8.02;68.09;102716.13;5043040;28;20025;-90
2021/03/17 00:18:24;;;;;;;16.08;11.18;;;;;;;7.99;68.16;102713.41;5046332;28;20476;-87
2021/03/17 00:20:51;;;;;;;17.50;11.45;;;;;;;7.99;67.85;102704.59;5042460;28;20080;-85
2021/03/17 00:23:18;;;;;;;15.07;10.43;;;;;;;7.88;68.14;102717.59;5044746;28;20481;-85
2021/03/17 00:25:47;;;;;;;18.80;11.38;;;;;;;7.91;68.15;102707.09;5040838;28;20210;-90
2021/03/17 00:28:14;;;;;;;17.17;11.15;;;;;;;7.93;67.63;102710.66;5045488;28;20423;-85
2021/03/17 00:30:43;;;;;;;19.08;12.50;;;;;;;7.80;68.62;102717.44;5043764;28;20029;-85
2021/03/17 00:33:14;;;;;;;20.48;12.40;;;;;;;7.76;68.53;102727.03;5043250;28;20044;-85
2021/03/17 00:35:43;;;;;;;20.60;13.25;;;;;;;7.87;67.89;102723.72;5044777;28;20025;-92
2021/03/17 00:38:10;;;;;;;19.83;12.75;;;;;;;7.89;67.98;102727.28;5044431;28;20033;-85
2021/03/17 00:40:37;;;;;;;25.67;16.45;;;;;;;7.87;68.46;102729.88;5043010;28;20025;-85
2021/03/17 00:43:04;;;;;;;29.08;17.38;;;;;;;7.89;68.27;102730.81;5044427;28;20033;-85
2021/03/17 00:45:31;;;;;;;25.95;16.90;;;;;;;7.94;68.26;102730.91;5045569;28;20044;-91
2021/03/17 00:47:59;;;;;;;30.88;16.52;;;;;;;7.98;68.12;102734.50;5052115;28;20488;-85
2021/03/17 00:50:26;;;;;;;30.67;18.85;;;;;;;7.90;68.36;102740.50;5052482;28;20108;-85
2021/03/17 00:52:56;;;;;;;33.97;19.55;;;;;;;7.88;68.46;102736.06;5053323;28;20029;-86
2021/03/17 00:55:25;;;;;;;34.22;20.73;;;;;;;7.97;68.25;102736.25;5053613;28;20421;-84
2021/03/17 00:57:51;;;;;;;32.92;20.55;;;;;;;7.95;68.28;102743.25;5052938;28;20115;-82
2021/03/17 01:00:19;;;;;;;30.75;19.70;;;;;;;8.00;67.94;102745.97;5053990;28;20029;-83
2021/03/17 01:02:46;;;;;;;30.52;19.55;;;;;;;7.93;68.26;102760.81;5051164;28;20079;-83
2021/03/17 01:05:13;;;;;;;36.28;21.80;;;;;;;7.94;68.20;102752.91;5053151;28;20032;-83
2021/03/17 01:07:40;;;;;;;32.30;20.42;;;;;;;7.91;68.36;102752.88;5047884;28;20033;-83
2021/03/17 01:10:12;;;;;;;29.70;20.52;;;;;;;7.90;68.65;102756.34;5053310;28;20040;-83
2021/03/17 01:12:38;;;;;;;30.33;20.23;;;;;;;7.96;68.45;102755.56;5053916;28;20552;-83
2021/03/17 01:15:06;;;;;;;28.65;19.13;;;;;;;7.77;69.21;102754.28;5054077;28;20278;-82
2021/03/17 01:17:33;;;;;;;26.60;18.08;;;;;;;7.92;68.45;102762.56;5052927;28;20086;-83
2021/03/17 01:19:59;;;;;;;25.92;17.95;;;;;;;7.96;67.90;102763.50;5053366;28;20020;-83
2021/03/17 01:22:27;;;;;;;21.80;15.05;;;;;;;7.84;68.70;102766.78;5053135;28;20021;-83
2021/03/17 01:24:53;;;;;;;21.13;14.27;;;;;;;7.92;68.07;102769.56;5053604;28;20491;-83
2021/03/17 01:27:20;;;;;;;20.52;14.48;;;;;;;7.86;68.42;102767.72;5042768;28;20030;-89
2021/03/17 01:29:46;;;;;;;17.38;11.88;;;;;;;7.77;68.65;102781.56;5049939;28;20112;-85
2021/03/17 01:32:13;;;;;;;17.25;11.65;;;;;;;7.69;68.51;102780.50;5036463;28;20029;-85
2021/03/17 01:34:39;;;;;;;16.95;11.88;;;;;;;7.85;68.43;102778.22;5053550;28;20025;-84
2021/03/17 01:37:06;;;;;;;18.58;12.45;;;;;;;7.93;68.19;102785.44;5052757;28;20049;-84
2021/03/17 01:39:32;;;;;;;16.33;11.77;;;;;;;7.92;68.35;102775.75;5053268;28;20025;-84
2021/03/17 01:41:59;;;;;;;16.23;11.20;;;;;;;7.92;68.05;102780.13;5052585;28;20025;-83
2021/03/17 01:44:38;;;;;;;17.13;11.40;;;;;;;7.92;68.27;102781.03;5053215;28;20036;-91
2021/03/17 01:47:05;;;;;;;15.93;11.10;;;;;;;7.97;68.39;102782.88;5052597;28;20472;-84
2021/03/17 01:49:31;;;;;;;15.05;10.00;;;;;;;7.97;67.95;102778.47;5051882;28;20033;-84
2021/03/17 01:51:58;;;;;;;17.17;10.68;;;;;;;7.96;67.85;102771.41;5052464;28;20033;-84
2021/03/17 01:54:24;;;;;;;14.73;10.40;;;;;;;8.00;67.93;102773.28;5053112;28;20028;-84
2021/03/17 01:56:52;;;;;;;13.98;9.60;;;;;;;8.01;67.58;102767.16;5052621;28;20032;-84
2021/03/17 01:59:19;;;;;;;15.30;9.88;;;;;;;8.00;67.74;102762.72;5051152;28;20083;-84
2021/03/17 02:01:46;;;;;;;12.90;9.88;;;;;;;8.02;68.23;102760.13;5051279;28;20480;-83
2021/03/17 02:04:12;;;;;;;13.43;9.95;;;;;;;7.93;68.01;102753.75;5036483;28;20151;-85
2021/03/17 02:06:39;;;;;;;13.50;9.43;;;;;;;7.91;68.42;102752.88;5052486;28;20051;-83
2021/03/17 02:09:05;;;;;;;15.35;10.25;;;;;;;8.00;67.65;102741.59;5052009;28;20494;-85
2021/03/17 02:11:32;;;;;;;14.20;9.85;;;;;;;8.06;67.85;102746.09;5052431;28;20037;-84
2021/03/17 02:14:24;;;;;;;15.27;10.40;;;;;;;8.13;67.57;102747.16;5053294;28;20116;-84
2021/03/17 02:17:06;;;;;;;16.45;10.52;;;;;;;8.09;68.03;102735.63;5056083;28;20040;-86
2021/03/17 02:22:38;;;;;;;16.83;11.07;;;;;;;8.16;67.44;102734.00;5090528;28;21040;-84
2021/03/17 02:25:28;;;;;;;16.15;10.43;;;;;;;8.18;68.09;102732.28;5070827;28;20029;-83
2021/03/17 02:31:12;;;;;;;13.57;9.82;;;;;;;8.06;67.72;102731.19;5079420;28;20434;-83
2021/03/17 02:33:49;;;;;;;14.80;10.10;;;;;;;8.04;68.17;102738.16;5070402;28;20110;-83
2021/03/17 02:39:08;;;;;;;14.90;10.73;;;;;;;8.04;67.49;102729.38;5080320;28;20408;-84
2021/03/17 02:41:42;;;;;;;17.38;9.85;;;;;;;8.09;67.43;102720.66;5070147;28;20433;-84
2021/03/17 02:44:14;;;;;;;13.75;9.25;;;;;;;8.10;67.83;102717.16;5070556;28;20090;-84
2021/03/17 02:46:42;;;;;;;12.73;9.55;;;;;;;8.05;67.59;102718.84;5062608;28;20021;-84
2021/03/17 02:49:21;;;;;;;17.73;8.93;;;;;;;8.00;68.01;102720.50;5062107;28;20037;-84
2021/03/17 02:51:53;;;;;;;14.68;9.45;;;;;;;8.03;67.68;102723.19;5053361;28;20148;-83
2021/03/17 02:54:21;;;;;;;14.55;9.68;;;;;;;8.03;67.35;102715.25;5066154;28;20461;-84
2021/03/17 02:56:55;;;;;;;12.65;9.82;;;;;;;8.04;68.02;102722.31;5058741;28;20428;-84
2021/03/17 02:59:23;;;;;;;11.80;8.55;;;;;;;8.02;68.13;102718.75;5068252;28;20056;-85
2021/03/17 03:01:53;;;;;;;11.38;8.32;;;;;;;7.95;67.83;102727.44;5053470;28;20043;-85
2021/03/17 03:04:22;;;;;;;12.98;8.18;;;;;;;7.96;67.52;102734.47;5065518;28;20108;-85
2021/03/17 03:06:51;;;;;;;16.98;8.75;;;;;;;7.92;67.99;102735.25;5058469;28;20094;-84
2021/03/17 03:09:20;;;;;;;12.98;7.55;;;;;;;7.96;68.21;102734.47;5057740;28;20060;-84
2021/03/17 03:11:50;;;;;;;15.43;8.80;;;;;;;7.99;67.79;102729.25;5066154;28;20040;-84
2021/03/17 03:14:18;;;;;;;10.80;7.53;;;;;;;7.81;68.38;102731.50;5053884;28;20021;-85
2021/03/17 03:16:46;;;;;;;9.25;6.63;;;;;;;7.97;68.30;102725.69;5061565;28;20021;-85
2021/03/17 03:19:14;;;;;;;9.63;5.80;;;;;;;8.02;67.72;102723.16;5061586;28;20476;-84
2021/03/17 03:21:41;;;;;;;10.85;5.97;;;;;;;8.03;67.52;102717.03;5053543;28;20112;-85
2021/03/17 03:24:10;;;;;;;11.82;5.38;;;;;;;8.04;68.06;102721.44;5066426;28;20080;-88
2021/03/17 03:26:37;;;;;;;9.10;5.50;;;;;;;8.02;68.09;102716.13;5054675;28;20598;-84
2021/03/17 03:29:05;;;;;;;12.68;6.53;;;;;;;8.01;68.40;102717.00;5059196;28;20048;-85
2021/03/17 03:31:31;;;;;;;10.70;5.32;;;;;;;8.05;67.70;102716.19;5063436;28;20035;-84
2021/03/17 03:33:58;;;;;;;7.53;5.40;;;;;;;8.08;68.29;102721.53;5052841;28;20033;-83
2021/03/17 03:36:26;;;;;;;8.43;5.80;;;;;;;8.06;68.14;102720.63;5063827;28;20029;-88
2021/03/17 03:38:53;;;;;;;8.20;4.78;;;;;;;8.07;67.78;102714.50;5058230;28;20517;-85
2021/03/17 03:41:20;;;;;;;9.70;5.45;;;;;;;8.05;68.47;102715.28;5056000;28;20072;-84
2021/03/17 03:43:46;;;;;;;6.72;5.28;;;;;;;7.99;68.23;102718.69;5065982;28;20116;-85
2021/03/17 03:46:12;;;;;;;10.27;5.53;;;;;;;8.01;68.44;102714.34;5065141;28;20036;-85
2021/03/17 03:48:39;;;;;;;6.93;5.10;;;;;;;8.05;68.13;102726.75;5052298;28;20036;-84
2021/03/17 03:51:06;;;;;;;7.38;5.45;;;;;;;8.13;68.35;102728.66;5044741;28;20480;-84
2021/03/17 03:59:31;;;;;;;12.55;7.15;;;;;;;8.05;68.69;102721.47;5036945;28;20431;-83
2021/03/17 04:02:01;;;;;;;13.30;6.63;;;;;;;8.14;68.44;102712.84;5028652;28;20412;-83
2021/03/17 04:04:31;;;;;;;9.80;7.25;;;;;;;8.14;68.34;102722.50;5016320;28;20025;-83
2021/03/17 04:07:01;;;;;;;10.45;7.93;;;;;;;8.08;68.51;102726.81;5020490;28;20030;-83
2021/03/17 04:09:41;;;;;;;11.88;7.13;;;;;;;8.03;69.41;102731.09;5024772;28;20491;-84
2021/03/17 04:12:09;;;;;;;10.35;7.13;;;;;;;7.98;69.22;102731.88;5013703;28;20029;-84
2021/03/17 04:14:49;;;;;;;12.70;7.45;;;;;;;8.18;68.63;102729.66;5005930;28;20038;-83
2021/03/17 04:17:38;;;;;;;10.45;6.35;;;;;;;8.14;68.98;102743.63;5022328;28;20068;-85
2021/03/17 04:20:17;;;;;;;9.10;5.97;;;;;;;8.12;69.57;102738.31;5013917;28;20536;-84
2021/03/17 04:22:50;;;;;;;7.75;6.00;;;;;;;8.21;69.30;102745.53;5022123;28;20049;-84
2021/03/17 04:25:17;;;;;;;;;;;;;;;8.38;68.19;102736.19;5023296;28;20132;-83
2021/03/17 04:27:47;;;;;;;13.75;6.60;;;;;;;8.27;68.84;102756.22;5014148;28;19915;-83
2021/03/17 04:30:16;;;;;;;8.80;5.07;;;;;;;8.22;68.57;102742.94;5017067;28;20039;-85
2021/03/17 04:32:45;;;;;;;6.45;4.55;;;;;;;8.25;68.79;102743.00;5014056;28;20455;-83
2021/03/17 04:35:14;;;;;;;5.25;3.90;;;;;;;8.19;69.24;102747.28;5018502;28;20023;-83
2021/03/17 04:37:43;;;;;;;5.72;4.45;;;;;;;8.31;68.94;102758.09;5007519;28;20061;-83
2021/03/17 04:40:10;;;;;;;7.65;4.40;;;;;;;8.21;69.42;102756.09;5013737;28;20038;-83
2021/03/17 04:42:40;;;;;;;5.05;3.28;;;;;;;8.31;69.53;102746.63;5022671;28;20505;-84
2021/03/17 04:45:09;;;;;;;5.13;3.63;;;;;;;8.38;68.93;102752.03;5010691;28;20486;-85
2021/03/17 04:47:37;;;;;;;6.15;4.03;;;;;;;8.45;68.50;102755.72;5024401;28;20079;-84
2021/03/17 04:50:05;;;;;;;5.85;3.92;;;;;;;8.42;68.59;102750.34;5013184;28;20500;-84
2021/03/17 04:52:35;;;;;;;7.20;2.85;;;;;;;8.39;69.11;102759.13;5023398;28;20117;-84
2021/03/17 04:55:02;;;;;;;4.70;3.38;;;;;;;8.43;68.71;102762.72;5020145;28;20521;-84
2021/03/17 04:57:33;;;;;;;4.22;2.65;;;;;;;8.45;68.67;102761.00;5019680;28;20037;-85
2021/03/17 05:00:01;;;;;;;9.02;3.47;;;;;;;8.52;68.80;102759.41;5029313;28;20029;-84
2021/03/17 05:02:29;;;;;;;5.78;2.10;;;;;;;8.45;69.23;102761.00;5029050;28;20381;-84
2021/03/17 05:04:56;;;;;;;3.75;1.83;;;;;;;8.49;68.39;102762.00;5029236;28;20386;-84
2021/03/17 05:07:25;;;;;;;4.90;2.17;;;;;;;8.50;68.97;102764.66;5029088;28;20029;-87
2021/03/17 05:09:53;;;;;;;4.43;2.17;;;;;;;8.59;68.17;102761.28;5020757;28;20045;-84
2021/03/17 05:12:19;;;;;;;2.72;1.88;;;;;;;8.52;68.31;102762.03;5015941;28;20048;-84
2021/03/17 05:14:48;;;;;;;5.50;1.67;;;;;;;8.43;68.09;102768.88;5016482;28;20034;-83
2021/03/17 05:17:15;;;;;;;5.07;1.55;;;;;;;8.61;67.84;102758.69;5015637;28;20469;-84
2021/03/17 05:19:43;;;;;;;4.45;1.27;;;;;;;8.66;68.13;102757.91;4997550;28;20035;-83
2021/03/17 05:22:12;;;;;;;3.20;1.52;;;;;;;8.65;68.19;102757.88;5012941;28;20064;-85
2021/03/17 05:24:38;;;;;;;5.90;2.17;;;;;;;8.58;68.30;102757.78;5009278;28;20037;-84
2021/03/17 05:27:11;;;;;;;4.00;1.98;;;;;;;8.67;67.74;102769.38;5006621;28;20022;-83
2021/03/17 05:29:39;;;;;;;5.03;1.88;;;;;;;8.62;68.42;102768.38;5000178;28;20026;-84
2021/03/17 05:32:07;;;;;;;3.20;2.17;;;;;;;8.63;67.62;102765.78;4995964;28;20031;-84
2021/03/17 05:34:48;;;;;;;8.48;2.40;;;;;;;8.57;68.03;102763.00;5001302;28;20361;-84
2021/03/17 05:37:15;;;;;;;6.28;1.88;;;;;;;8.55;68.04;102767.41;5015224;28;20030;-83
2021/03/17 05:39:41;;;;;;;2.90;1.73;;;;;;;8.54;67.70;102762.97;5001934;28;20125;-84
2021/03/17 05:42:07;;;;;;;3.80;1.38;;;;;;;8.53;67.84;102769.09;5003767;28;20030;-83
2021/03/17 05:44:33;;;;;;;2.42;1.60;;;;;;;8.55;67.34;102746.25;4996969;28;20026;-82
2021/03/17 05:47:00;;;;;;;2.78;1.10;;;;;;;8.53;67.36;102747.97;5015343;28;20145;-83
2021/03/17 05:49:26;;;;;;;2.78;1.25;;;;;;;8.47;67.64;102750.50;4992054;28;20088;-83
2021/03/17 05:51:54;;;;;;;4.03;1.13;;;;;;;8.31;67.51;102755.44;4984376;28;20031;-84
2021/03/17 05:54:20;;;;;;;2.15;1.00;;;;;;;8.41;67.09;102746.84;5003943;28;20026;-85
2021/03/17 05:56:47;;;;;;;1.48;0.98;;;;;;;8.41;67.13;102738.91;5007924;28;20084;-83
2021/03/17 05:59:14;;;;;;;1.35;0.90;;;;;;;8.40;66.90;102746.81;5006070;28;20084;-87
2021/03/17 06:01:42;;;;;;;2.90;1.77;;;;;;;8.45;67.11;102749.53;5012653;28;20025;-85
2021/03/17 06:04:10;;;;;;;1.88;1.30;;;;;;;8.39;66.89;102755.59;5031388;28;20045;-89
2021/03/17 06:06:40;;;;;;;1.70;1.20;;;;;;;8.35;66.85;102765.22;5021008;28;20037;-88
2021/03/17 06:09:10;;;;;;;2.00;1.00;;;;;;;8.20;66.56;102767.50;5025193;28;20022;-87
2021/03/17 06:11:39;;;;;;;1.27;1.10;;;;;;;8.41;66.80;102775.00;5011550;28;20022;-90
2021/03/17 06:14:12;;;;;;;1.73;1.50;;;;;;;8.31;66.72;102779.22;5030442;28;20033;-85
2021/03/17 06:16:39;;;;;;;;;;;;;;;8.29;66.55;102778.28;5021949;28;20061;-84
2021/03/17 06:19:07;;;;;;;2.55;1.88;;;;;;;8.18;66.67;102785.09;5027178;28;19917;-84
2021/03/17 06:21:33;;;;;;;4.22;1.75;;;;;;;8.13;67.12;102784.13;5010126;28;20493;-85
2021/03/17 06:23:59;;;;;;;3.38;2.25;;;;;;;7.97;67.61;102791.69;5025338;28;20072;-84
2021/03/17 06:26:28;;;;;;;5.13;2.50;;;;;;;8.19;66.48;102789.53;5028900;28;20026;-86
2021/03/17 06:28:54;;;;;;;4.18;2.45;;;;;;;8.13;66.97;102795.56;5013228;28;20493;-84
2021/03/17 06:31:21;;;;;;;4.32;2.60;;;;;;;8.17;66.96;102788.59;5005502;28;20034;-84
2021/03/17 06:33:47;;;;;;;5.78;2.75;;;;;;;8.18;67.21;102788.63;5027204;28;20025;-84
2021/03/17 06:36:18;;;;;;;6.75;4.28;;;;;;;8.24;67.03;102779.94;5010603;28;20057;-84
2021/03/17 06:38:46;;;;;;;7.50;3.53;;;;;;;8.42;66.08;102779.41;5007495;28;20482;-84
2021/03/17 06:41:14;;;;;;;4.57;3.15;;;;;;;8.53;66.40;102769.97;5009283;28;20183;-83
2021/03/17 06:43:42;;;;;;;4.53;2.83;;;;;;;8.39;66.39;102761.75;5010922;28;20544;-85
2021/03/17 06:46:11;;;;;;;4.60;3.08;;;;;;;8.47;66.06;102769.84;5015222;28;20033;-85
2021/03/17 06:48:39;;;;;;;6.15;3.38;;;;;;;8.53;65.68;102774.38;5026962;28;20462;-83
2021/03/17 06:53:56;;;;;;;4.00;2.13;;;;;;;8.41;66.02;102777.63;5075424;28;20482;-83
2021/03/17 06:59:07;;;;;;;1.65;1.40;;;;;;;8.45;66.16;102791.78;5121061;27;20354;-84
2021/03/17 07:01:41;;;;;;;2.67;1.90;;;;;;;8.45;66.59;102808.56;5113345;28;20556;-83
2021/03/17 07:04:11;;;;;;;2.38;2.17;;;;;;;8.23;66.67;102809.84;5122637;28;20100;-84
2021/03/17 07:06:43;;;;;;;4.28;2.10;;;;;;;8.28;67.00;102818.75;5097498;28;20431;-84
2021/03/17 07:09:25;;;;;;;7.93;2.78;;;;;;;8.33;66.90;102813.59;5110505;27;20063;-84
2021/03/17 07:11:52;;;;;;;6.15;2.95;;;;;;;8.07;67.15;102825.38;5114060;27;20120;-84
2021/03/17 07:14:26;;;;;;;5.00;3.30;;;;;;;8.54;66.54;102821.09;5126095;27;20035;-84
2021/03/17 07:16:54;;;;;;;3.45;3.05;;;;;;;8.29;66.85;102825.81;5108123;28;20082;-91
2021/03/17 07:19:40;;;;;;;4.07;3.00;;;;;;;8.33;66.50;102825.03;5107643;28;20119;-88
2021/03/17 07:22:11;;;;;;;4.65;3.00;;;;;;;8.34;66.73;102826.81;5104379;28;20039;-85
2021/03/17 07:24:43;;;;;;;4.07;3.15;;;;;;;8.23;66.96;102833.63;5099665;28;20032;-85
2021/03/17 07:27:16;;;;;;;3.60;2.70;;;;;;;8.20;66.97;102841.44;5102298;28;20148;-85
2021/03/17 07:29:44;;;;;;;4.03;2.75;;;;;;;8.26;67.30;102836.31;5101235;28;20020;-88
2021/03/17 07:32:12;;;;;;;5.15;2.50;;;;;;;8.21;66.79;102845.88;5099740;28;20028;-85
2021/03/17 07:34:42;;;;;;;3.25;2.40;;;;;;;8.20;67.17;102844.09;5097278;28;20032;-86
2021/03/17 07:37:09;;;;;;;5.78;2.35;;;;;;;8.14;67.39;102844.88;5103525;28;20064;-85
2021/03/17 07:39:38;;;;;;;6.60;3.20;;;;;;;8.19;67.03;102852.91;5114184;27;20031;-84
2021/03/17 07:42:08;;;;;;;8.52;3.83;;;;;;;8.18;67.03;102861.69;5107140;28;20376;-84
2021/03/17 07:44:36;;;;;;;6.30;3.47;;;;;;;8.31;66.79;102863.75;5103019;28;20027;-85
2021/03/17 07:47:05;;;;;;;7.10;3.42;;;;;;;8.30;66.58;102835.53;5102676;28;20058;-87
2021/03/17 07:49:31;;;;;;;4.93;3.75;;;;;;;8.29;66.14;102854.88;5108279;28;20099;-83
2021/03/17 07:52:01;;;;;;;4.97;3.60;;;;;;;8.34;66.33;102863.78;5111300;28;20024;-84
2021/03/17 07:54:30;;;;;;;5.47;3.50;;;;;;;8.45;65.93;102865.75;5121188;27;20024;-83
2021/03/17 07:57:06;;;;;;;4.95;3.40;;;;;;;8.52;65.95;102862.44;5102694;28;20389;-90
2021/03/17 07:59:39;;;;;;;4.70;4.05;;;;;;;8.56;65.19;102853.69;5100428;28;20379;-86
2021/03/17 08:02:05;;;;;;;7.82;3.70;;;;;;;8.39;65.22;102862.13;5098825;28;20043;-91
2021/03/17 08:04:33;;;;;;;4.82;2.63;;;;;;;8.23;64.47;102865.31;5092690;28;20020;-88
2021/03/17 08:07:02;;;;;;;5.95;2.40;;;;;;;8.49;64.46;102867.66;5092437;28;20072;-88
2021/03/17 08:09:28;;;;;;;4.93;2.88;;;;;;;8.66;63.98;102866.25;5092154;28;20094;-87
2021/03/17 08:12:01;;;;;;;3.10;2.17;;;;;;;8.71;63.46;102875.16;5085607;28;20043;-89
2021/03/17 08:14:29;;;;;;;8.63;3.60;;;;;;;8.87;63.99;102884.31;5090594;28;20084;-88
2021/03/17 08:16:55;;;;;;;2.33;2.03;;;;;;;8.82;63.55;102877.13;5085798;28;20071;-88
2021/03/17 08:19:30;;;;;;;3.63;2.22;;;;;;;8.95;63.90;102868.59;5081234;28;20044;-87
2021/03/17 08:22:04;;;;;;;2.85;2.22;;;;;;;9.03;63.22;102876.66;5082556;28;20591;-88
2021/03/17 08:30:08;;;;;;;5.75;2.25;;;;;;;8.90;62.39;102879.06;5076536;27;20977;-89
2021/03/17 08:32:57;;;;;;;4.07;2.40;;;;;;;9.13;62.27;102869.81;5065615;28;20039;-83
2021/03/17 08:35:24;;;;;;;5.88;2.40;;;;;;;9.14;62.87;102875.09;5067690;28;20024;-86
2021/03/17 08:40:47;;;;;;;2.90;1.70;;;;;;;9.06;61.10;102888.19;5058913;28;20436;-82
2021/03/17 08:46:23;;;;;;;1.55;1.10;;;;;;;9.28;61.88;102885.94;5062866;28;20731;-82
2021/03/17 08:49:09;;;;;;;7.25;1.35;;;;;;;9.05;61.94;102883.75;5033032;28;20021;-82
2021/03/17 08:57:14;;;;;;;2.15;1.35;;;;;;;9.38;60.82;102858.81;5150701;27;20400;-85
2021/03/17 09:05:02;;;;;;;3.40;1.27;;;;;;;9.60;60.21;102863.56;5071016;28;20414;-82
2021/03/17 09:07:32;;;;;;;4.35;0.82;;;;;;;9.47;58.79;102875.69;5042936;28;20068;-82
2021/03/17 09:10:10;;;;;;;2.53;0.80;;;;;;;9.73;59.69;102878.75;5040501;28;20117;-83
2021/03/17 09:15:28;;;;;;;3.28;1.02;;;;;;;9.65;58.38;102889.22;5076625;27;20431;-85
2021/03/17 09:18:03;;;;;;;7.32;1.25;;;;;;;9.78;58.60;102876.19;5047409;28;20025;-86
2021/03/17 09:23:16;;;;;;;2.42;0.75;;;;;;;9.84;57.40;102889.53;5057363;27;20454;-82
2021/03/17 09:26:03;;;;;;;3.38;1.23;;;;;;;9.99;58.11;102895.09;5048426;28;20506;-83
2021/03/17 09:28:32;;;;;;;4.10;1.00;;;;;;;9.96;57.90;102894.16;5033901;28;20033;-87
2021/03/17 09:31:05;;;;;;;5.15;1.00;;;;;;;9.81;57.70;102903.63;5029929;28;20045;-87
2021/03/17 09:33:39;;;;;;;3.17;0.95;;;;;;;9.88;57.54;102900.22;5029409;28;20022;-88
2021/03/17 09:36:09;;;;;;;1.52;0.80;;;;;;;9.69;57.91;102898.13;5033284;28;20033;-88
2021/03/17 09:38:38;;;;;;;3.55;1.10;;;;;;;9.68;58.02;102894.59;5031158;28;20036;-76
2021/03/17 09:41:27;;;;;;;5.32;1.15;;;;;;;9.67;57.07;102892.81;5029152;28;20038;-84
2021/03/17 09:43:59;;;;;;;3.45;0.95;;;;;;;9.61;57.81;102898.00;5028712;28;20025;-87
2021/03/17 09:46:41;;;;;;;7.65;2.13;;;;;;;9.52;58.38;102896.09;5028905;28;20029;-84
2021/03/17 09:49:12;;;;;;;4.38;1.00;;;;;;;9.32;59.90;102905.41;5032671;28;20030;-87
2021/03/17 09:51:41;;;;;;;3.22;1.08;;;;;;;9.18;60.67;102906.06;5036050;28;20032;-87
2021/03/17 09:54:12;;;;;;;3.97;1.20;;;;;;;9.12;61.66;102897.09;5031117;28;20026;-84
2021/03/17 09:56:41;;;;;;;2.70;0.90;;;;;;;9.10;61.52;102899.72;5034442;28;20507;-85
2021/03/17 09:59:29;;;;;;;8.52;1.10;;;;;;;8.84;61.57;102896.56;5027241;28;20033;-83
2021/03/17 10:04:45;;;;;;;5.97;1.48;;;;;;;9.18;60.77;102884.00;5149290;27;20689;-81
2021/03/17 10:07:18;;;;;;;4.95;1.17;;;;;;;9.39;60.78;102892.34;5149025;27;20027;-77
2021/03/17 10:09:45;;;;;;;3.53;1.10;;;;;;;9.59;60.62;102886.47;5140776;27;20034;-87
2021/03/17 10:12:21;;;;;;;4.10;1.10;;;;;;;9.78;60.21;102877.09;5136113;27;20105;-83
2021/03/17 10:17:31;;;;;;;4.90;1.27;;;;;;;9.77;60.07;102879.72;5052978;28;20445;-81
2021/03/17 10:20:03;;;;;;;3.20;1.60;;;;;;;10.03;60.01;102865.13;5040045;28;20073;-81
2021/03/17 10:22:30;;;;;;;3.35;1.35;;;;;;;9.71;61.28;102878.75;5039147;28;20080;-85
2021/03/17 10:24:59;;;;;;;3.03;1.13;;;;;;;9.67;61.63;102871.63;5040005;28;20093;-84
2021/03/17 10:27:33;;;;;;;3.25;1.15;;;;;;;9.86;61.17;102871.94;5040716;28;20029;-83
2021/03/17 10:30:06;;;;;;;4.50;0.80;;;;;;;9.80;61.21;102871.84;5032242;28;20113;-83
2021/03/17 10:32:34;;;;;;;5.03;1.20;;;;;;;9.83;60.97;102871.88;5043735;28;20039;-84
2021/03/17 10:35:05;;;;;;;0.93;0.65;;;;;;;9.95;60.80;102876.47;5041175;28;20065;-84
2021/03/17 10:37:32;;;;;;;4.10;0.70;;;;;;;10.11;60.37;102864.34;5044561;28;20481;-91
2021/03/17 10:42:56;;;;;;;2.60;0.90;;;;;;;10.40;60.39;102858.59;5062585;27;20397;-87
2021/03/17 10:45:27;;;;;;;4.63;2.35;;;;;;;10.20;60.50;102865.38;5048729;28;20052;-82
2021/03/17 10:47:55;;;;;;;4.25;2.22;;;;;;;10.52;59.84;102856.97;5028710;28;20041;-86
2021/03/17 10:53:25;;;;;;;1.63;1.15;;;;;;;10.23;59.88;102868.91;5076415;27;20402;-82
2021/03/17 10:55:54;;;;;;;2.65;1.00;;;;;;;10.01;61.00;102872.16;5065382;28;20086;-81
2021/03/17 10:58:24;;;;;;;2.72;0.82;;;;;;;10.33;60.41;102876.13;5048447;28;20151;-84
2021/03/17 11:00:54;;;;;;;2.00;0.80;;;;;;;10.00;60.28;102874.78;5048383;28;20037;-84
2021/03/17 11:03:27;;;;;;;2.35;0.80;;;;;;;10.29;59.81;102872.56;5047168;28;20052;-84
2021/03/17 11:06:14;;;;;;;2.72;0.60;;;;;;;10.40;59.43;102869.19;5041742;28;20396;-82
2021/03/17 11:08:41;;;;;;;2.13;0.77;;;;;;;10.55;59.58;102869.38;5038849;28;20068;-82
2021/03/17 11:11:09;;;;;;;2.78;0.85;;;;;;;10.68;57.49;102863.38;5043248;28;20025;-79
2021/03/17 11:13:38;;;;;;;1.25;0.57;;;;;;;10.70;56.67;102858.06;5042118;28;20032;-80
2021/03/17 11:16:07;;;;;;;1.45;0.70;;;;;;;11.03;56.71;102855.78;5043088;28;20539;-82
2021/03/17 11:21:22;;;;;;;6.80;1.38;;;;;;;10.40;57.89;102864.78;5048448;28;20414;-80
2021/03/17 11:23:58;;;;;;;2.63;1.27;;;;;;;10.34;58.33;102870.88;5047432;28;20033;-85
2021/03/17 11:29:19;;;;;;;7.97;1.33;;;;;;;10.10;59.56;102855.50;5107597;27;20371;-79
2021/03/17 11:31:48;;;;;;;4.57;1.13;;;;;;;10.06;59.50;102858.09;5109609;28;20040;-82
2021/03/17 11:34:16;;;;;;;4.20;0.90;;;;;;;10.41;58.83;102860.38;5108846;28;20031;-82
2021/03/17 11:36:44;;;;;;;4.18;1.08;;;;;;;10.60;58.00;102850.88;5110758;28;20049;-81
2021/03/17 11:39:12;;;;;;;14.95;6.38;;;;;;;10.77;57.16;102859.06;5102356;28;20054;-81
2021/03/17 11:41:41;;;;;;;8.07;1.42;;;;;;;10.83;57.36;102859.13;5107877;28;20031;-84
2021/03/17 11:44:08;;;;;;;5.03;1.02;;;;;;;10.93;56.72;102849.47;5100885;28;20480;-82
2021/03/17 11:46:34;;;;;;;5.13;0.98;;;;;;;10.45;56.09;102856.88;5100997;28;20038;-81
2021/03/17 11:49:03;;;;;;;6.10;1.02;;;;;;;10.78;55.98;102860.81;5106712;28;20031;-83
2021/03/17 11:51:30;;;;;;;4.93;1.02;;;;;;;10.61;56.21;102864.16;5098765;28;20502;-83
2021/03/17 11:53:56;;;;;;;6.03;1.17;;;;;;;10.75;55.69;102861.66;5110858;28;20035;-82
2021/03/17 11:56:23;;;;;;;4.32;1.95;;;;;;;10.68;55.73;102859.84;5103516;28;20031;-81
2021/03/17 11:58:49;;;;;;;7.65;1.20;;;;;;;10.72;56.02;102855.47;5109762;28;20050;-81
2021/03/17 12:01:16;;;;;;;9.57;1.52;;;;;;;10.66;56.03;102856.28;5108467;28;20036;-83
2021/03/17 12:03:43;;;;;;;9.82;1.55;;;;;;;10.63;55.72;102856.22;5111745;28;20048;-81
2021/03/17 12:06:10;;;;;;;6.65;1.30;;;;;;;10.31;55.82;102859.34;5108288;28;20032;-81
2021/03/17 12:08:37;;;;;;;4.35;1.55;;;;;;;10.66;55.82;102856.28;5106742;28;20198;-82
2021/03/17 12:11:04;;;;;;;6.45;2.05;;;;;;;10.60;55.89;102849.13;5107882;28;20530;-83
2021/03/17 12:13:30;;;;;;;7.50;1.75;;;;;;;10.84;55.51;102856.50;5110007;28;20368;-84
2021/03/17 12:15:56;;;;;;;6.82;2.00;;;;;;;10.66;55.64;102857.16;5109212;28;20039;-82
2021/03/17 12:18:23;;;;;;;4.95;1.73;;;;;;;10.71;55.97;102853.69;5108521;28;20059;-82
2021/03/17 12:20:49;;;;;;;9.65;1.85;;;;;;;10.91;55.66;102851.25;5108734;28;20023;-81
2021/03/17 12:23:17;;;;;;;8.50;1.42;;;;;;;11.06;55.59;102853.19;5107425;28;20024;-78
2021/03/17 12:25:45;;;;;;;6.95;1.67;;;;;;;11.16;55.46;102857.69;5108461;28;20102;-78
2021/03/17 12:28:11;;;;;;;7.95;1.55;;;;;;;11.21;55.67;102857.75;5109616;28;20489;-77
2021/03/17 12:30:38;;;;;;;13.90;2.25;;;;;;;11.46;55.52;102845.56;5107986;28;20084;-81
2021/03/17 12:33:04;;;;;;;7.22;1.58;;;;;;;11.42;54.92;102849.09;5109111;28;20030;-81
2021/03/17 12:35:34;;;;;;;16.73;4.20;;;;;;;11.50;54.85;102847.38;5105993;28;20032;-84
2021/03/17 12:38:01;;;;;;;8.65;1.50;;;;;;;11.57;54.45;102853.63;5088917;28;20479;-82
2021/03/17 12:40:28;;;;;;;6.88;1.52;;;;;;;11.76;54.07;102849.34;5092034;28;20131;-83
2021/03/17 12:42:56;;;;;;;3.55;0.95;;;;;;;11.70;54.84;102841.34;5088289;28;20036;-84
2021/03/17 12:45:25;;;;;;;7.30;1.23;;;;;;;11.77;53.86;102830.75;5092693;28;20106;-83